| time (UTC) | temp C | wind direction | speed KPH | gust KPH | rain 1hr cm | rain 24hr cm | rain mn cm | humidity % | barometer mb |
| 20260906113041 | 13 | 59 | 0.0 | 0.0 | 0.00 | 0.30 | 0.03 | 100 | 1020.1 |
| 20260906111502 | 13 | 59 | 0.0 | 0.0 | 0.00 | 0.30 | 0.03 | 100 | 1020.1 |
| 20260906110015 | 14 | 59 | 0.0 | 0.0 | 0.00 | 0.38 | 0.03 | 100 | 1020.1 |
| 20260906104539 | 14 | 23 | 0.0 | 0.0 | 0.00 | 0.38 | 0.03 | 100 | 1019.8 |
| 20260906103053 | 14 | 41 | 0.0 | 0.0 | 0.00 | 0.38 | 0.03 | 100 | 1019.8 |
| 20260906101518 | 14 | 46 | 0.0 | 0.0 | 0.00 | 0.38 | 0.03 | 100 | 1019.7 |
| 20260906100027 | 15 | 26 | 0.0 | 0.0 | 0.00 | 0.51 | 0.03 | 100 | 1019.7 |
| 20260906094557 | 15 | 36 | 0.0 | 0.0 | 0.00 | 0.51 | 0.03 | 100 | 1019.5 |
| 20260906093009 | 15 | 36 | 0.0 | 0.0 | 0.00 | 0.51 | 0.03 | 100 | 1019.6 |
| 20260906091535 | 15 | 36 | 0.0 | 0.0 | 0.00 | 0.51 | 0.03 | 100 | 1019.6 |
| 20260906090047 | 15 | 36 | 0.0 | 0.0 | 0.00 | 0.71 | 0.03 | 100 | 1019.5 |
| 20260906084521 | 15 | 36 | 0.0 | 0.0 | 0.03 | 0.71 | 0.03 | 100 | 1019.3 |
| 20260906083027 | 15 | 36 | 0.0 | 0.0 | 0.03 | 0.71 | 0.03 | 100 | 1019.1 |
| 20260906081559 | 16 | 36 | 0.0 | 0.0 | 0.03 | 0.71 | 0.03 | 100 | 1019.1 |
| 20260906080007 | 16 | 36 | 0.0 | 0.0 | 0.03 | 0.89 | 0.03 | 100 | 1018.9 |
| 20260906074536 | 16 | 36 | 0.0 | 0.0 | 0.00 | 0.86 | 0.00 | 100 | 1018.9 |
| 20260906073039 | 16 | 36 | 0.0 | 0.0 | 0.00 | 0.86 | 0.00 | 100 | 1018.9 |
| 20260906071504 | 17 | 36 | 0.0 | 0.0 | 0.00 | 0.86 | 0.00 | 100 | 1018.8 |
| 20260906070015 | 17 | 51 | 0.0 | 0.0 | 0.00 | 1.19 | 0.00 | 99 | 1018.9 |
| 20260906064542 | 17 | 51 | 0.0 | 0.0 | 0.00 | 1.19 | 0.00 | 99 | 1018.9 |
| 20260906063051 | 17 | 51 | 0.0 | 0.0 | 0.00 | 1.19 | 0.00 | 98 | 1019.0 |
| 20260906061513 | 18 | 51 | 0.0 | 0.0 | 0.00 | 1.19 | 0.00 | 98 | 1019.0 |
| 20260906060022 | 18 | 59 | 0.0 | 0.0 | 0.00 | 1.42 | 0.00 | 97 | 1018.7 |
| 20260906054551 | 18 | 29 | 0.0 | 6.4 | 0.00 | 1.42 | 0.00 | 97 | 1018.5 |
| 20260906053053 | 18 | 34 | 0.0 | 4.8 | 0.00 | 1.42 | 0.00 | 97 | 1018.7 |
| 20260906051515 | 19 | 34 | 0.0 | 1.6 | 0.00 | 1.42 | 0.00 | 96 | 1018.5 |
| 20260906050053 | 20 | 42 | 0.0 | 1.6 | 0.00 | 1.70 | 0.00 | 95 | 1018.4 |
| 20260906044557 | 20 | 53 | 0.0 | 6.4 | 0.00 | 1.70 | 0.00 | 94 | 1018.2 |
| 20260906043009 | 20 | 35 | 0.0 | 4.8 | 0.00 | 1.70 | 0.00 | 94 | 1018.0 |
| 20260906041533 | 20 | 23 | 1.6 | 6.4 | 0.00 | 1.70 | 0.00 | 94 | 1017.8 |
| 20260906040044 | 20 | 80 | 1.6 | 6.4 | 0.00 | 4.27 | 1.70 | 97 | 1018.0 |
| 20260906034508 | 20 | 19 | 3.2 | 6.4 | 0.00 | 4.27 | 1.70 | 99 | 1017.7 |
| 20260906033024 | 19 | 30 | 1.6 | 4.8 | 0.00 | 4.27 | 1.70 | 100 | 1017.8 |
| 20260906031554 | 19 | 41 | 1.6 | 6.4 | 0.00 | 4.27 | 1.70 | 100 | 1017.9 |
| 20260906030005 | 19 | 40 | 0.0 | 9.7 | 0.00 | 4.27 | 1.70 | 100 | 1017.7 |
| 20260906024539 | 20 | 25 | 0.0 | 3.2 | 0.00 | 4.27 | 1.70 | 100 | 1017.8 |
| 20260906023053 | 20 | 34 | 0.0 | 0.0 | 0.00 | 4.27 | 1.70 | 100 | 1017.4 |
| 20260906021522 | 20 | 34 | 0.0 | 0.0 | 0.00 | 4.27 | 1.70 | 100 | 1017.2 |
| 20260906020035 | 20 | 34 | 0.0 | 0.0 | 0.00 | 4.27 | 1.70 | 100 | 1017.2 |
| 20260906014506 | 20 | 34 | 0.0 | 0.0 | 0.00 | 4.27 | 1.70 | 100 | 1017.1 |
| 20260906013015 | 21 | 33 | 0.0 | 0.0 | 0.00 | 4.27 | 1.70 | 100 | 1017.0 |
| 20260906011543 | 21 | 34 | 0.0 | 0.0 | 0.00 | 4.27 | 1.70 | 100 | 1016.9 |
| 20260906010052 | 21 | 34 | 0.0 | 0.0 | 0.00 | 4.27 | 1.70 | 100 | 1016.8 |
| 20260906004522 | 21 | 33 | 0.0 | 0.0 | 0.03 | 4.27 | 1.70 | 100 | 1016.6 |
| 20260906003038 | 21 | 34 | 0.0 | 0.0 | 0.03 | 4.27 | 1.70 | 100 | 1016.5 |
| 20260906001509 | 21 | 34 | 0.0 | 0.0 | 0.03 | 4.27 | 1.70 | 99 | 1016.5 |
| 20260906000028 | 22 | 33 | 0.0 | 0.0 | 0.03 | 4.27 | 1.70 | 99 | 1016.4 |
| 20260905234611 | 22 | 34 | 0.0 | 0.0 | 0.00 | 4.24 | 1.68 | 99 | 1016.5 |
| 20260905233015 | 22 | 34 | 0.0 | 1.6 | 0.00 | 4.24 | 1.68 | 98 | 1016.4 |
| 20260905231543 | 22 | 42 | 0.0 | 4.8 | 0.00 | 4.24 | 1.68 | 97 | 1016.5 |
| 20260905230054 | 22 | 41 | 0.0 | 6.4 | 0.00 | 4.24 | 1.68 | 97 | 1016.4 |
| 20260905224514 | 22 | 75 | 0.0 | 14.5 | 0.00 | 4.24 | 1.68 | 98 | 1016.1 |
| 20260905223035 | 22 | 72 | 0.0 | 8.0 | 0.00 | 4.24 | 1.68 | 97 | 1015.9 |
| 20260905221556 | 22 | 52 | 0.0 | 4.8 | 0.00 | 4.24 | 1.68 | 97 | 1015.9 |
| 20260905220012 | 22 | 76 | 1.6 | 9.7 | 0.00 | 4.24 | 1.68 | 97 | 1015.9 |
| 20260905214540 | 22 | 34 | 3.2 | 8.0 | 0.03 | 4.24 | 1.68 | 98 | 1015.6 |
| 20260905213052 | 22 | 26 | 0.0 | 8.0 | 0.03 | 4.24 | 1.68 | 98 | 1015.5 |
| 20260905211519 | 22 | 32 | 0.0 | 8.0 | 0.03 | 4.24 | 1.68 | 99 | 1015.6 |
| 20260905210043 | 22 | 59 | 1.6 | 6.4 | 0.03 | 4.24 | 1.68 | 99 | 1015.6 |
| 20260905204510 | 22 | 22 | 1.6 | 11.3 | 0.00 | 4.22 | 1.65 | 99 | 1015.7 |
| 20260905203015 | 22 | 30 | 0.0 | 6.4 | 0.00 | 4.22 | 1.65 | 99 | 1015.8 |
| 20260905201544 | 22 | 44 | 1.6 | 11.3 | 0.00 | 4.22 | 1.65 | 99 | 1015.8 |
| 20260905200050 | 22 | 85 | 1.6 | 8.0 | 0.00 | 4.24 | 1.65 | 99 | 1015.8 |
| 20260905194507 | 22 | 52 | 0.0 | 14.5 | 0.03 | 4.24 | 1.65 | 98 | 1015.8 |
| 20260905193058 | 23 | 92 | 0.0 | 6.4 | 0.03 | 4.24 | 1.65 | 98 | 1015.7 |
| 20260905191518 | 23 | 61 | 1.6 | 8.0 | 0.03 | 4.24 | 1.65 | 98 | 1015.7 |
| 20260905190038 | 23 | 340 | 3.2 | 12.9 | 0.03 | 4.24 | 1.65 | 98 | 1015.7 |
| 20260905184508 | 23 | 18 | 1.6 | 12.9 | 0.00 | 4.22 | 1.63 | 99 | 1015.8 |
| 20260905183014 | 23 | 57 | 0.0 | 6.4 | 0.00 | 4.22 | 1.63 | 100 | 1015.6 |
| 20260905181540 | 23 | 355 | 0.0 | 8.0 | 0.03 | 4.22 | 1.63 | 100 | 1015.6 |
| 20260905180052 | 23 | 22 | 0.0 | 9.7 | 0.03 | 4.22 | 1.63 | 100 | 1015.6 |
| 20260905174527 | 22 | 52 | 1.6 | 8.0 | 0.03 | 4.22 | 1.63 | 100 | 1015.8 |
| 20260905173026 | 22 | 21 | 1.6 | 8.0 | 0.03 | 4.22 | 1.63 | 100 | 1015.8 |
| 20260905171552 | 22 | 94 | 0.0 | 9.7 | 0.00 | 4.19 | 1.60 | 100 | 1016.0 |
| 20260905170012 | 22 | 19 | 1.6 | 8.0 | 0.00 | 4.27 | 1.60 | 100 | 1016.0 |
| 20260905164538 | 22 | 17 | 1.6 | 8.0 | 0.03 | 4.27 | 1.60 | 100 | 1016.1 |
| 20260905163053 | 22 | 64 | 1.6 | 8.0 | 0.03 | 4.27 | 1.60 | 100 | 1015.9 |
| 20260905161511 | 21 | 38 | 0.0 | 3.2 | 0.03 | 4.27 | 1.60 | 100 | 1015.9 |
| 20260905160027 | 21 | 36 | 3.2 | 9.7 | 0.03 | 5.05 | 1.60 | 100 | 1016.0 |
| 20260905154541 | 21 | 48 | 0.0 | 6.4 | 0.00 | 5.03 | 1.57 | 100 | 1016.0 |
| 20260905153035 | 21 | 25 | 0.0 | 3.2 | 0.03 | 5.03 | 1.57 | 100 | 1016.0 |
| 20260905151556 | 21 | 167 | 0.0 | 3.2 | 0.03 | 5.03 | 1.57 | 100 | 1015.7 |
| 20260905150016 | 21 | 21 | 0.0 | 1.6 | 0.03 | 5.03 | 1.57 | 100 | 1015.8 |
| 20260905144544 | 21 | 53 | 0.0 | 4.8 | 0.05 | 5.03 | 1.57 | 100 | 1015.8 |
| 20260905143050 | 21 | 84 | 0.0 | 3.2 | 0.03 | 5.00 | 1.55 | 100 | 1015.7 |
| 20260905141541 | 21 | 45 | 0.0 | 3.2 | 0.03 | 5.00 | 1.55 | 100 | 1015.7 |
| 20260905140022 | 21 | 36 | 0.0 | 6.4 | 0.03 | 5.92 | 1.55 | 100 | 1015.7 |
| 20260905134605 | 21 | 72 | 0.0 | 4.8 | 0.03 | 5.87 | 1.52 | 100 | 1015.3 |
| 20260905133010 | 20 | 32 | 0.0 | 4.8 | 0.03 | 5.87 | 1.52 | 100 | 1015.5 |
| 20260905131554 | 20 | 5 | 0.0 | 4.8 | 0.03 | 5.87 | 1.52 | 100 | 1015.1 |
| 20260905130052 | 20 | 28 | 1.6 | 4.8 | 0.05 | 5.92 | 1.52 | 100 | 1015.1 |
| 20260905124600 | 20 | 28 | 0.0 | 3.2 | 0.03 | 5.87 | 1.50 | 100 | 1015.1 |
| 20260905123056 | 20 | 55 | 1.6 | 4.8 | 0.05 | 5.87 | 1.50 | 100 | 1015.0 |
| 20260905121504 | 20 | 55 | 1.6 | 9.7 | 0.05 | 5.87 | 1.50 | 100 | 1014.8 |
| 20260905120015 | 20 | 32 | 1.6 | 8.0 | 0.05 | 5.94 | 1.45 | 100 | 1014.7 |
| 20260905114623 | 19 | 61 | 3.2 | 6.4 | 0.05 | 5.94 | 1.45 | 100 | 1014.6 |